sensor_id;sensor_type;location;lat;lon;timestamp;P1;durP1;ratioP1;P2;durP2;ratioP2
18857;SDS011;9558;50.178;8.370;2023-11-18T00:01:18;11.10;;;4.82;;
18857;SDS011;9558;50.178;8.370;2023-11-18T00:04:07;10.85;;;3.63;;
18857;SDS011;9558;50.178;8.370;2023-11-18T00:07:00;7.55;;;3.85;;
18857;SDS011;9558;50.178;8.370;2023-11-18T00:09:49;8.63;;;4.03;;
18857;SDS011;9558;50.178;8.370;2023-11-18T00:12:36;10.55;;;3.88;;
18857;SDS011;9558;50.178;8.370;2023-11-18T00:15:26;8.50;;;3.92;;
18857;SDS011;9558;50.178;8.370;2023-11-18T00:18:12;9.23;;;3.83;;
18857;SDS011;9558;50.178;8.370;2023-11-18T00:21:00;9.45;;;3.95;;
18857;SDS011;9558;50.178;8.370;2023-11-18T00:23:47;9.30;;;4.25;;
18857;SDS011;9558;50.178;8.370;2023-11-18T00:26:34;11.43;;;5.10;;
18857;SDS011;9558;50.178;8.370;2023-11-18T00:29:21;8.32;;;4.38;;
18857;SDS011;9558;50.178;8.370;2023-11-18T00:32:08;19.88;;;6.50;;
18857;SDS011;9558;50.178;8.370;2023-11-18T00:34:55;14.98;;;5.35;;
18857;SDS011;9558;50.178;8.370;2023-11-18T00:37:43;10.80;;;5.20;;
18857;SDS011;9558;50.178;8.370;2023-11-18T00:40:30;11.70;;;5.18;;
18857;SDS011;9558;50.178;8.370;2023-11-18T00:43:17;14.52;;;4.57;;
18857;SDS011;9558;50.178;8.370;2023-11-18T00:46:03;14.60;;;4.63;;
18857;SDS011;9558;50.178;8.370;2023-11-18T00:51:37;10.40;;;4.50;;
18857;SDS011;9558;50.178;8.370;2023-11-18T00:54:25;9.15;;;3.88;;
18857;SDS011;9558;50.178;8.370;2023-11-18T00:57:12;7.53;;;3.55;;
18857;SDS011;9558;50.178;8.370;2023-11-18T00:59:58;12.70;;;4.07;;
18857;SDS011;9558;50.178;8.370;2023-11-18T01:02:45;8.35;;;4.00;;
18857;SDS011;9558;50.178;8.370;2023-11-18T01:05:33;10.18;;;3.85;;
18857;SDS011;9558;50.178;8.370;2023-11-18T01:08:20;9.23;;;4.15;;
18857;SDS011;9558;50.178;8.370;2023-11-18T01:11:08;10.27;;;4.07;;
18857;SDS011;9558;50.178;8.370;2023-11-18T01:13:55;9.88;;;3.95;;
18857;SDS011;9558;50.178;8.370;2023-11-18T01:16:42;14.65;;;4.55;;
18857;SDS011;9558;50.178;8.370;2023-11-18T01:19:29;11.20;;;4.13;;
18857;SDS011;9558;50.178;8.370;2023-11-18T01:22:16;8.35;;;4.65;;
18857;SDS011;9558;50.178;8.370;2023-11-18T01:25:04;7.80;;;3.28;;
18857;SDS011;9558;50.178;8.370;2023-11-18T01:27:52;11.73;;;4.53;;
18857;SDS011;9558;50.178;8.370;2023-11-18T01:30:39;10.05;;;4.65;;
18857;SDS011;9558;50.178;8.370;2023-11-18T01:33:26;10.20;;;4.10;;
18857;SDS011;9558;50.178;8.370;2023-11-18T01:36:13;8.65;;;2.70;;
18857;SDS011;9558;50.178;8.370;2023-11-18T01:39:00;4.78;;;2.42;;
18857;SDS011;9558;50.178;8.370;2023-11-18T01:44:36;9.50;;;3.40;;
18857;SDS011;9558;50.178;8.370;2023-11-18T01:47:22;5.43;;;2.88;;
18857;SDS011;9558;50.178;8.370;2023-11-18T01:50:10;5.97;;;2.83;;
18857;SDS011;9558;50.178;8.370;2023-11-18T01:52:59;5.97;;;2.92;;
18857;SDS011;9558;50.178;8.370;2023-11-18T01:55:47;5.18;;;2.20;;
18857;SDS011;9558;50.178;8.370;2023-11-18T01:58:34;6.65;;;2.33;;
18857;SDS011;9558;50.178;8.370;2023-11-18T02:01:23;6.72;;;2.58;;
18857;SDS011;9558;50.178;8.370;2023-11-18T02:04:10;6.43;;;3.00;;
18857;SDS011;9558;50.178;8.370;2023-11-18T02:06:58;3.75;;;1.52;;
18857;SDS011;9558;50.178;8.370;2023-11-18T02:09:49;6.22;;;2.50;;
18857;SDS011;9558;50.178;8.370;2023-11-18T02:12:38;4.38;;;1.90;;
18857;SDS011;9558;50.178;8.370;2023-11-18T02:15:33;6.70;;;2.85;;
18857;SDS011;9558;50.178;8.370;2023-11-18T02:18:22;13.75;;;2.38;;
18857;SDS011;9558;50.178;8.370;2023-11-18T02:21:10;15.40;;;3.30;;
18857;SDS011;9558;50.178;8.370;2023-11-18T02:23:59;6.75;;;3.05;;
18857;SDS011;9558;50.178;8.370;2023-11-18T02:26:48;8.70;;;3.03;;
18857;SDS011;9558;50.178;8.370;2023-11-18T02:29:35;11.25;;;4.63;;
18857;SDS011;9558;50.178;8.370;2023-11-18T02:32:25;27.67;;;3.10;;
18857;SDS011;9558;50.178;8.370;2023-11-18T02:35:18;7.50;;;3.22;;
18857;SDS011;9558;50.178;8.370;2023-11-18T02:38:11;3.97;;;2.42;;
18857;SDS011;9558;50.178;8.370;2023-11-18T02:40:59;33.95;;;2.47;;
18857;SDS011;9558;50.178;8.370;2023-11-18T02:43:55;6.97;;;3.47;;
18857;SDS011;9558;50.178;8.370;2023-11-18T02:46:43;7.35;;;3.13;;
18857;SDS011;9558;50.178;8.370;2023-11-18T02:52:17;7.03;;;2.88;;
18857;SDS011;9558;50.178;8.370;2023-11-18T02:55:05;29.70;;;2.38;;
18857;SDS011;9558;50.178;8.370;2023-11-18T02:57:53;21.65;;;3.22;;
18857;SDS011;9558;50.178;8.370;2023-11-18T03:00:41;3.97;;;2.50;;
18857;SDS011;9558;50.178;8.370;2023-11-18T03:03:29;20.25;;;2.60;;
18857;SDS011;9558;50.178;8.370;2023-11-18T03:06:17;8.90;;;2.28;;
18857;SDS011;9558;50.178;8.370;2023-11-18T03:09:03;12.85;;;2.28;;
18857;SDS011;9558;50.178;8.370;2023-11-18T03:11:52;4.38;;;2.30;;
18857;SDS011;9558;50.178;8.370;2023-11-18T03:14:40;33.30;;;3.00;;
18857;SDS011;9558;50.178;8.370;2023-11-18T03:20:15;19.70;;;2.13;;
18857;SDS011;9558;50.178;8.370;2023-11-18T03:23:02;20.33;;;2.40;;
18857;SDS011;9558;50.178;8.370;2023-11-18T03:25:49;13.20;;;2.90;;
18857;SDS011;9558;50.178;8.370;2023-11-18T03:28:37;3.10;;;1.48;;
18857;SDS011;9558;50.178;8.370;2023-11-18T03:31:24;2.72;;;1.40;;
18857;SDS011;9558;50.178;8.370;2023-11-18T03:34:12;2.65;;;1.30;;
18857;SDS011;9558;50.178;8.370;2023-11-18T03:36:59;4.63;;;1.48;;
18857;SDS011;9558;50.178;8.370;2023-11-18T03:39:46;6.28;;;1.85;;
18857;SDS011;9558;50.178;8.370;2023-11-18T03:42:33;32.47;;;2.75;;
18857;SDS011;9558;50.178;8.370;2023-11-18T03:45:22;6.03;;;1.65;;
18857;SDS011;9558;50.178;8.370;2023-11-18T03:48:09;6.07;;;2.42;;
18857;SDS011;9558;50.178;8.370;2023-11-18T03:51:01;4.07;;;2.00;;
18857;SDS011;9558;50.178;8.370;2023-11-18T03:53:49;4.95;;;2.42;;
18857;SDS011;9558;50.178;8.370;2023-11-18T03:59:22;19.05;;;3.03;;
18857;SDS011;9558;50.178;8.370;2023-11-18T04:02:09;10.55;;;1.80;;
18857;SDS011;9558;50.178;8.370;2023-11-18T04:04:56;24.08;;;2.20;;
18857;SDS011;9558;50.178;8.370;2023-11-18T04:07:45;6.07;;;2.10;;
18857;SDS011;9558;50.178;8.370;2023-11-18T04:10:32;8.70;;;2.05;;
18857;SDS011;9558;50.178;8.370;2023-11-18T04:13:18;14.27;;;1.85;;
18857;SDS011;9558;50.178;8.370;2023-11-18T04:16:05;29.05;;;3.17;;
18857;SDS011;9558;50.178;8.370;2023-11-18T04:18:52;11.57;;;1.65;;
18857;SDS011;9558;50.178;8.370;2023-11-18T04:21:39;25.92;;;2.65;;
18857;SDS011;9558;50.178;8.370;2023-11-18T04:24:27;15.45;;;2.20;;
18857;SDS011;9558;50.178;8.370;2023-11-18T04:27:14;8.38;;;1.70;;
18857;SDS011;9558;50.178;8.370;2023-11-18T04:30:01;4.43;;;1.73;;
18857;SDS011;9558;50.178;8.370;2023-11-18T04:32:48;5.30;;;1.60;;
18857;SDS011;9558;50.178;8.370;2023-11-18T04:35:37;5.32;;;1.35;;
18857;SDS011;9558;50.178;8.370;2023-11-18T04:38:24;4.18;;;2.03;;
18857;SDS011;9558;50.178;8.370;2023-11-18T04:41:12;6.53;;;1.48;;
18857;SDS011;9558;50.178;8.370;2023-11-18T04:43:59;3.97;;;1.92;;
18857;SDS011;9558;50.178;8.370;2023-11-18T04:46:46;2.85;;;1.50;;
18857;SDS011;9558;50.178;8.370;2023-11-18T04:49:33;3.78;;;1.80;;
18857;SDS011;9558;50.178;8.370;2023-11-18T04:52:20;3.50;;;1.90;;
18857;SDS011;9558;50.178;8.370;2023-11-18T04:55:07;10.15;;;1.95;;
18857;SDS011;9558;50.178;8.370;2023-11-18T04:57:57;10.25;;;1.77;;
18857;SDS011;9558;50.178;8.370;2023-11-18T05:00:43;4.53;;;2.15;;
18857;SDS011;9558;50.178;8.370;2023-11-18T05:03:30;11.38;;;1.30;;
18857;SDS011;9558;50.178;8.370;2023-11-18T05:06:17;10.90;;;2.47;;
18857;SDS011;9558;50.178;8.370;2023-11-18T05:09:05;3.17;;;1.70;;
18857;SDS011;9558;50.178;8.370;2023-11-18T05:11:52;3.20;;;1.55;;
18857;SDS011;9558;50.178;8.370;2023-11-18T05:14:41;3.47;;;1.50;;
18857;SDS011;9558;50.178;8.370;2023-11-18T05:17:28;2.65;;;1.58;;
18857;SDS011;9558;50.178;8.370;2023-11-18T05:20:15;26.95;;;2.08;;
18857;SDS011;9558;50.178;8.370;2023-11-18T05:23:03;5.53;;;2.03;;
18857;SDS011;9558;50.178;8.370;2023-11-18T05:25:49;43.50;;;2.47;;
18857;SDS011;9558;50.178;8.370;2023-11-18T05:28:36;7.65;;;2.03;;
18857;SDS011;9558;50.178;8.370;2023-11-18T05:31:25;2.92;;;1.50;;
18857;SDS011;9558;50.178;8.370;2023-11-18T05:34:11;7.40;;;2.20;;
18857;SDS011;9558;50.178;8.370;2023-11-18T05:36:58;8.18;;;2.05;;
18857;SDS011;9558;50.178;8.370;2023-11-18T05:39:46;5.13;;;2.10;;
18857;SDS011;9558;50.178;8.370;2023-11-18T05:42:34;3.83;;;2.42;;
18857;SDS011;9558;50.178;8.370;2023-11-18T05:45:22;4.00;;;2.03;;
18857;SDS011;9558;50.178;8.370;2023-11-18T05:48:18;2.92;;;1.73;;
18857;SDS011;9558;50.178;8.370;2023-11-18T05:51:05;4.55;;;2.05;;
18857;SDS011;9558;50.178;8.370;2023-11-18T05:56:38;6.15;;;2.88;;
18857;SDS011;9558;50.178;8.370;2023-11-18T05:59:25;3.78;;;2.08;;
18857;SDS011;9558;50.178;8.370;2023-11-18T06:02:12;10.32;;;3.85;;
18857;SDS011;9558;50.178;8.370;2023-11-18T06:05:05;8.32;;;4.55;;
18857;SDS011;9558;50.178;8.370;2023-11-18T06:07:52;9.50;;;3.55;;
18857;SDS011;9558;50.178;8.370;2023-11-18T06:10:39;4.68;;;2.53;;
18857;SDS011;9558;50.178;8.370;2023-11-18T06:13:26;7.40;;;3.45;;
18857;SDS011;9558;50.178;8.370;2023-11-18T06:19:00;4.40;;;2.70;;
18857;SDS011;9558;50.178;8.370;2023-11-18T06:21:51;6.35;;;3.28;;
18857;SDS011;9558;50.178;8.370;2023-11-18T06:24:38;3.00;;;2.58;;
18857;SDS011;9558;50.178;8.370;2023-11-18T06:27:25;11.27;;;1.70;;
18857;SDS011;9558;50.178;8.370;2023-11-18T06:30:12;4.15;;;2.35;;
18857;SDS011;9558;50.178;8.370;2023-11-18T06:33:01;5.57;;;1.75;;
18857;SDS011;9558;50.178;8.370;2023-11-18T06:38:36;5.72;;;2.10;;
18857;SDS011;9558;50.178;8.370;2023-11-18T06:41:23;11.15;;;2.78;;
18857;SDS011;9558;50.178;8.370;2023-11-18T06:44:11;4.30;;;2.80;;
18857;SDS011;9558;50.178;8.370;2023-11-18T06:47:03;4.05;;;2.13;;
18857;SDS011;9558;50.178;8.370;2023-11-18T06:49:51;3.58;;;1.92;;
18857;SDS011;9558;50.178;8.370;2023-11-18T06:52:38;4.55;;;2.67;;
18857;SDS011;9558;50.178;8.370;2023-11-18T06:55:26;6.95;;;2.80;;
18857;SDS011;9558;50.178;8.370;2023-11-18T06:58:13;10.55;;;3.00;;
18857;SDS011;9558;50.178;8.370;2023-11-18T07:01:00;6.20;;;2.17;;
18857;SDS011;9558;50.178;8.370;2023-11-18T07:03:47;8.75;;;2.33;;
18857;SDS011;9558;50.178;8.370;2023-11-18T07:06:38;11.88;;;3.20;;
18857;SDS011;9558;50.178;8.370;2023-11-18T07:09:25;21.85;;;3.10;;
18857;SDS011;9558;50.178;8.370;2023-11-18T07:12:13;11.70;;;3.58;;
18857;SDS011;9558;50.178;8.370;2023-11-18T07:14:59;12.60;;;5.97;;
18857;SDS011;9558;50.178;8.370;2023-11-18T07:17:47;10.85;;;4.55;;
18857;SDS011;9558;50.178;8.370;2023-11-18T07:20:34;16.38;;;4.18;;
18857;SDS011;9558;50.178;8.370;2023-11-18T07:23:20;4.00;;;1.88;;
18857;SDS011;9558;50.178;8.370;2023-11-18T07:26:08;5.53;;;2.33;;
18857;SDS011;9558;50.178;8.370;2023-11-18T07:28:56;14.27;;;2.33;;
18857;SDS011;9558;50.178;8.370;2023-11-18T07:31:43;7.50;;;3.00;;
18857;SDS011;9558;50.178;8.370;2023-11-18T07:34:30;13.65;;;3.15;;
18857;SDS011;9558;50.178;8.370;2023-11-18T07:37:18;7.13;;;2.65;;
18857;SDS011;9558;50.178;8.370;2023-11-18T07:40:05;5.53;;;3.50;;
18857;SDS011;9558;50.178;8.370;2023-11-18T07:42:53;4.75;;;3.00;;
18857;SDS011;9558;50.178;8.370;2023-11-18T07:45:43;11.77;;;2.60;;
18857;SDS011;9558;50.178;8.370;2023-11-18T07:48:32;6.22;;;2.67;;
18857;SDS011;9558;50.178;8.370;2023-11-18T07:51:20;10.75;;;3.90;;
18857;SDS011;9558;50.178;8.370;2023-11-18T07:54:08;11.43;;;5.35;;
18857;SDS011;9558;50.178;8.370;2023-11-18T07:59:42;8.57;;;4.05;;
18857;SDS011;9558;50.178;8.370;2023-11-18T08:02:30;14.00;;;6.63;;
18857;SDS011;9558;50.178;8.370;2023-11-18T08:05:17;8.07;;;3.83;;
18857;SDS011;9558;50.178;8.370;2023-11-18T08:08:04;12.73;;;5.80;;
18857;SDS011;9558;50.178;8.370;2023-11-18T08:13:38;9.48;;;4.05;;
18857;SDS011;9558;50.178;8.370;2023-11-18T08:16:26;10.13;;;4.65;;
18857;SDS011;9558;50.178;8.370;2023-11-18T08:19:16;13.05;;;4.50;;
18857;SDS011;9558;50.178;8.370;2023-11-18T08:22:03;14.10;;;5.75;;
18857;SDS011;9558;50.178;8.370;2023-11-18T08:24:51;11.05;;;4.93;;
18857;SDS011;9558;50.178;8.370;2023-11-18T08:27:38;11.13;;;5.32;;
18857;SDS011;9558;50.178;8.370;2023-11-18T08:30:26;10.77;;;4.47;;
18857;SDS011;9558;50.178;8.370;2023-11-18T08:33:13;17.38;;;5.38;;
18857;SDS011;9558;50.178;8.370;2023-11-18T08:36:01;8.75;;;4.88;;
18857;SDS011;9558;50.178;8.370;2023-11-18T08:38:48;9.43;;;4.55;;
18857;SDS011;9558;50.178;8.370;2023-11-18T08:41:35;9.98;;;4.68;;
18857;SDS011;9558;50.178;8.370;2023-11-18T08:44:24;13.55;;;5.55;;
18857;SDS011;9558;50.178;8.370;2023-11-18T08:49:58;9.95;;;5.43;;
18857;SDS011;9558;50.178;8.370;2023-11-18T08:52:58;9.45;;;5.18;;
18857;SDS011;9558;50.178;8.370;2023-11-18T08:55:45;17.40;;;6.93;;
18857;SDS011;9558;50.178;8.370;2023-11-18T08:58:40;12.15;;;5.15;;
18857;SDS011;9558;50.178;8.370;2023-11-18T09:01:29;11.48;;;5.28;;
18857;SDS011;9558;50.178;8.370;2023-11-18T09:04:17;17.75;;;5.75;;
18857;SDS011;9558;50.178;8.370;2023-11-18T09:07:05;13.60;;;5.95;;
18857;SDS011;9558;50.178;8.370;2023-11-18T09:09:56;17.05;;;6.95;;
18857;SDS011;9558;50.178;8.370;2023-11-18T09:12:43;11.73;;;4.95;;
18857;SDS011;9558;50.178;8.370;2023-11-18T09:18:17;25.67;;;7.45;;
18857;SDS011;9558;50.178;8.370;2023-11-18T09:21:05;26.88;;;7.05;;
18857;SDS011;9558;50.178;8.370;2023-11-18T09:23:56;12.07;;;6.38;;
18857;SDS011;9558;50.178;8.370;2023-11-18T09:26:44;14.27;;;6.00;;
18857;SDS011;9558;50.178;8.370;2023-11-18T09:29:33;15.93;;;5.90;;
18857;SDS011;9558;50.178;8.370;2023-11-18T09:35:11;16.38;;;6.38;;
18857;SDS011;9558;50.178;8.370;2023-11-18T09:37:58;19.88;;;7.00;;
18857;SDS011;9558;50.178;8.370;2023-11-18T09:40:45;20.13;;;7.30;;
18857;SDS011;9558;50.178;8.370;2023-11-18T09:43:36;17.23;;;7.38;;
18857;SDS011;9558;50.178;8.370;2023-11-18T09:46:28;14.55;;;6.15;;
18857;SDS011;9558;50.178;8.370;2023-11-18T09:49:21;19.08;;;6.88;;
18857;SDS011;9558;50.178;8.370;2023-11-18T09:52:18;15.98;;;6.47;;
18857;SDS011;9558;50.178;8.370;2023-11-18T09:55:11;19.08;;;6.18;;
18857;SDS011;9558;50.178;8.370;2023-11-18T09:58:09;14.23;;;6.18;;
18857;SDS011;9558;50.178;8.370;2023-11-18T10:01:03;17.75;;;6.80;;
18857;SDS011;9558;50.178;8.370;2023-11-18T10:03:50;17.85;;;7.88;;
18857;SDS011;9558;50.178;8.370;2023-11-18T10:06:38;22.70;;;7.30;;
18857;SDS011;9558;50.178;8.370;2023-11-18T10:09:25;23.25;;;7.55;;
18857;SDS011;9558;50.178;8.370;2023-11-18T10:12:14;13.43;;;5.88;;
18857;SDS011;9558;50.178;8.370;2023-11-18T10:15:09;18.30;;;5.70;;
18857;SDS011;9558;50.178;8.370;2023-11-18T10:18:02;13.23;;;6.70;;
18857;SDS011;9558;50.178;8.370;2023-11-18T10:20:53;14.07;;;6.13;;
18857;SDS011;9558;50.178;8.370;2023-11-18T10:26:44;12.02;;;4.63;;
18857;SDS011;9558;50.178;8.370;2023-11-18T10:29:33;21.33;;;6.47;;
18857;SDS011;9558;50.178;8.370;2023-11-18T10:32:21;14.25;;;5.60;;
18857;SDS011;9558;50.178;8.370;2023-11-18T10:35:14;17.35;;;6.50;;
18857;SDS011;9558;50.178;8.370;2023-11-18T10:38:01;11.85;;;4.93;;
18857;SDS011;9558;50.178;8.370;2023-11-18T10:40:50;13.35;;;6.25;;
18857;SDS011;9558;50.178;8.370;2023-11-18T10:43:38;14.27;;;6.32;;
18857;SDS011;9558;50.178;8.370;2023-11-18T10:46:27;13.50;;;5.97;;
18857;SDS011;9558;50.178;8.370;2023-11-18T10:49:15;14.38;;;6.10;;
18857;SDS011;9558;50.178;8.370;2023-11-18T10:52:04;14.02;;;5.43;;
18857;SDS011;9558;50.178;8.370;2023-11-18T10:54:53;11.07;;;5.18;;
18857;SDS011;9558;50.178;8.370;2023-11-18T10:57:41;11.73;;;5.03;;
18857;SDS011;9558;50.178;8.370;2023-11-18T11:03:19;10.73;;;5.47;;
18857;SDS011;9558;50.178;8.370;2023-11-18T11:06:15;11.60;;;5.15;;
18857;SDS011;9558;50.178;8.370;2023-11-18T11:09:05;11.95;;;5.47;;
18857;SDS011;9558;50.178;8.370;2023-11-18T11:11:59;10.52;;;4.40;;
18857;SDS011;9558;50.178;8.370;2023-11-18T11:14:50;15.40;;;5.05;;
18857;SDS011;9558;50.178;8.370;2023-11-18T11:17:45;13.60;;;5.47;;
18857;SDS011;9558;50.178;8.370;2023-11-18T11:20:41;12.55;;;5.93;;
18857;SDS011;9558;50.178;8.370;2023-11-18T11:23:30;14.40;;;5.97;;
18857;SDS011;9558;50.178;8.370;2023-11-18T11:26:37;18.88;;;7.05;;
18857;SDS011;9558;50.178;8.370;2023-11-18T11:29:38;11.75;;;5.32;;
18857;SDS011;9558;50.178;8.370;2023-11-18T11:32:35;19.23;;;5.70;;
18857;SDS011;9558;50.178;8.370;2023-11-18T11:35:27;17.67;;;6.38;;
18857;SDS011;9558;50.178;8.370;2023-11-18T11:38:18;15.75;;;6.18;;
18857;SDS011;9558;50.178;8.370;2023-11-18T11:41:07;20.17;;;6.32;;
18857;SDS011;9558;50.178;8.370;2023-11-18T11:43:56;20.83;;;6.93;;
18857;SDS011;9558;50.178;8.370;2023-11-18T11:46:43;15.80;;;6.65;;
18857;SDS011;9558;50.178;8.370;2023-11-18T11:52:23;15.43;;;5.28;;
18857;SDS011;9558;50.178;8.370;2023-11-18T11:55:15;15.73;;;5.85;;
18857;SDS011;9558;50.178;8.370;2023-11-18T12:01:21;18.25;;;6.85;;
18857;SDS011;9558;50.178;8.370;2023-11-18T12:04:15;15.50;;;5.75;;
18857;SDS011;9558;50.178;8.370;2023-11-18T12:07:09;17.75;;;6.93;;
18857;SDS011;9558;50.178;8.370;2023-11-18T12:10:00;20.95;;;6.97;;
18857;SDS011;9558;50.178;8.370;2023-11-18T12:12:51;22.65;;;8.07;;
18857;SDS011;9558;50.178;8.370;2023-11-18T12:15:54;19.00;;;7.72;;
18857;SDS011;9558;50.178;8.370;2023-11-18T12:18:44;22.40;;;9.05;;
18857;SDS011;9558;50.178;8.370;2023-11-18T12:22:10;22.65;;;7.65;;
18857;SDS011;9558;50.178;8.370;2023-11-18T12:28:24;20.08;;;8.05;;
18857;SDS011;9558;50.178;8.370;2023-11-18T12:31:13;24.90;;;9.48;;
18857;SDS011;9558;50.178;8.370;2023-11-18T12:34:48;17.90;;;7.78;;
18857;SDS011;9558;50.178;8.370;2023-11-18T12:37:51;22.85;;;8.65;;
18857;SDS011;9558;50.178;8.370;2023-11-18T12:41:00;26.75;;;9.75;;
18857;SDS011;9558;50.178;8.370;2023-11-18T12:43:55;21.80;;;9.05;;
18857;SDS011;9558;50.178;8.370;2023-11-18T12:49:56;13.02;;;6.70;;
18857;SDS011;9558;50.178;8.370;2023-11-18T12:52:45;17.65;;;7.82;;
18857;SDS011;9558;50.178;8.370;2023-11-18T12:55:33;21.67;;;8.55;;
18857;SDS011;9558;50.178;8.370;2023-11-18T12:58:20;24.63;;;8.05;;
18857;SDS011;9558;50.178;8.370;2023-11-18T13:01:08;15.95;;;6.93;;
18857;SDS011;9558;50.178;8.370;2023-11-18T13:03:59;17.58;;;6.68;;
18857;SDS011;9558;50.178;8.370;2023-11-18T13:06:48;17.17;;;7.22;;
18857;SDS011;9558;50.178;8.370;2023-11-18T13:09:36;14.73;;;6.68;;
18857;SDS011;9558;50.178;8.370;2023-11-18T13:12:26;16.20;;;7.25;;
18857;SDS011;9558;50.178;8.370;2023-11-18T13:15:14;14.48;;;6.32;;
18857;SDS011;9558;50.178;8.370;2023-11-18T13:18:02;17.92;;;7.20;;
18857;SDS011;9558;50.178;8.370;2023-11-18T13:20:54;12.65;;;5.80;;
18857;SDS011;9558;50.178;8.370;2023-11-18T13:23:47;16.63;;;5.63;;
18857;SDS011;9558;50.178;8.370;2023-11-18T13:26:35;11.52;;;6.57;;
18857;SDS011;9558;50.178;8.370;2023-11-18T13:29:23;18.35;;;6.63;;
18857;SDS011;9558;50.178;8.370;2023-11-18T13:32:10;11.60;;;6.43;;
18857;SDS011;9558;50.178;8.370;2023-11-18T13:35:00;12.13;;;6.03;;
18857;SDS011;9558;50.178;8.370;2023-11-18T13:37:47;15.52;;;6.25;;
18857;SDS011;9558;50.178;8.370;2023-11-18T13:40:43;14.05;;;7.15;;
18857;SDS011;9558;50.178;8.370;2023-11-18T13:43:40;14.75;;;6.93;;
18857;SDS011;9558;50.178;8.370;2023-11-18T13:46:28;13.55;;;5.72;;
18857;SDS011;9558;50.178;8.370;2023-11-18T13:49:14;16.00;;;7.63;;
18857;SDS011;9558;50.178;8.370;2023-11-18T13:52:01;13.52;;;6.82;;
18857;SDS011;9558;50.178;8.370;2023-11-18T13:54:49;16.55;;;7.30;;
18857;SDS011;9558;50.178;8.370;2023-11-18T13:57:42;14.52;;;6.40;;
18857;SDS011;9558;50.178;8.370;2023-11-18T14:00:29;16.55;;;7.07;;
18857;SDS011;9558;50.178;8.370;2023-11-18T14:03:17;14.00;;;7.10;;
18857;SDS011;9558;50.178;8.370;2023-11-18T14:06:06;14.52;;;7.10;;
18857;SDS011;9558;50.178;8.370;2023-11-18T14:08:55;18.05;;;7.05;;
18857;SDS011;9558;50.178;8.370;2023-11-18T14:11:42;17.25;;;8.00;;
18857;SDS011;9558;50.178;8.370;2023-11-18T14:14:31;22.25;;;8.38;;
18857;SDS011;9558;50.178;8.370;2023-11-18T14:17:18;13.45;;;7.43;;
18857;SDS011;9558;50.178;8.370;2023-11-18T14:20:05;17.92;;;7.57;;
18857;SDS011;9558;50.178;8.370;2023-11-18T14:22:57;16.17;;;7.00;;
18857;SDS011;9558;50.178;8.370;2023-11-18T14:28:31;18.15;;;8.07;;
18857;SDS011;9558;50.178;8.370;2023-11-18T14:31:21;13.98;;;7.53;;
18857;SDS011;9558;50.178;8.370;2023-11-18T14:34:08;14.40;;;6.60;;
18857;SDS011;9558;50.178;8.370;2023-11-18T14:36:55;16.05;;;8.02;;
18857;SDS011;9558;50.178;8.370;2023-11-18T14:39:42;17.25;;;6.82;;
18857;SDS011;9558;50.178;8.370;2023-11-18T14:45:15;12.32;;;6.13;;
18857;SDS011;9558;50.178;8.370;2023-11-18T14:48:04;13.02;;;7.28;;
18857;SDS011;9558;50.178;8.370;2023-11-18T14:50:52;15.30;;;5.85;;
18857;SDS011;9558;50.178;8.370;2023-11-18T14:53:42;18.33;;;7.15;;
18857;SDS011;9558;50.178;8.370;2023-11-18T14:56:29;16.75;;;6.47;;
18857;SDS011;9558;50.178;8.370;2023-11-18T14:59:16;22.10;;;7.75;;
18857;SDS011;9558;50.178;8.370;2023-11-18T15:02:03;15.65;;;6.57;;
18857;SDS011;9558;50.178;8.370;2023-11-18T15:04:51;14.82;;;7.03;;
18857;SDS011;9558;50.178;8.370;2023-11-18T15:07:38;15.27;;;7.88;;
18857;SDS011;9558;50.178;8.370;2023-11-18T15:10:25;12.98;;;6.90;;
18857;SDS011;9558;50.178;8.370;2023-11-18T15:13:13;12.88;;;6.72;;
18857;SDS011;9558;50.178;8.370;2023-11-18T15:16:02;13.55;;;5.32;;
18857;SDS011;9558;50.178;8.370;2023-11-18T15:18:49;16.17;;;6.78;;
18857;SDS011;9558;50.178;8.370;2023-11-18T15:21:38;11.90;;;7.43;;
18857;SDS011;9558;50.178;8.370;2023-11-18T15:24:25;8.60;;;5.35;;
18857;SDS011;9558;50.178;8.370;2023-11-18T15:30:00;9.70;;;4.63;;
18857;SDS011;9558;50.178;8.370;2023-11-18T15:32:49;6.13;;;3.53;;
18857;SDS011;9558;50.178;8.370;2023-11-18T15:35:37;9.38;;;4.55;;
18857;SDS011;9558;50.178;8.370;2023-11-18T15:38:25;8.57;;;5.40;;
18857;SDS011;9558;50.178;8.370;2023-11-18T15:41:12;10.27;;;4.85;;
18857;SDS011;9558;50.178;8.370;2023-11-18T15:43:59;9.23;;;5.45;;
18857;SDS011;9558;50.178;8.370;2023-11-18T15:46:47;8.68;;;4.93;;
18857;SDS011;9558;50.178;8.370;2023-11-18T15:49:35;12.07;;;5.20;;
18857;SDS011;9558;50.178;8.370;2023-11-18T15:52:21;11.05;;;4.72;;
18857;SDS011;9558;50.178;8.370;2023-11-18T15:55:09;12.65;;;5.45;;
18857;SDS011;9558;50.178;8.370;2023-11-18T15:57:59;8.02;;;4.50;;
18857;SDS011;9558;50.178;8.370;2023-11-18T16:03:32;6.55;;;3.95;;
18857;SDS011;9558;50.178;8.370;2023-11-18T16:09:07;5.95;;;4.25;;
18857;SDS011;9558;50.178;8.370;2023-11-18T16:11:55;6.55;;;3.10;;
18857;SDS011;9558;50.178;8.370;2023-11-18T16:14:42;7.00;;;4.93;;
18857;SDS011;9558;50.178;8.370;2023-11-18T16:17:29;3.03;;;1.95;;
18857;SDS011;9558;50.178;8.370;2023-11-18T16:20:16;6.65;;;4.63;;
18857;SDS011;9558;50.178;8.370;2023-11-18T16:23:04;5.68;;;3.08;;
18857;SDS011;9558;50.178;8.370;2023-11-18T16:25:50;2.88;;;2.05;;
18857;SDS011;9558;50.178;8.370;2023-11-18T16:31:25;2.38;;;1.95;;
18857;SDS011;9558;50.178;8.370;2023-11-18T16:36:58;19.85;;;10.60;;
18857;SDS011;9558;50.178;8.370;2023-11-18T16:39:45;6.68;;;4.18;;
18857;SDS011;9558;50.178;8.370;2023-11-18T16:42:32;2.40;;;1.35;;
18857;SDS011;9558;50.178;8.370;2023-11-18T16:45:20;2.53;;;1.50;;
18857;SDS011;9558;50.178;8.370;2023-11-18T16:48:09;4.60;;;2.13;;
18857;SDS011;9558;50.178;8.370;2023-11-18T16:50:55;4.10;;;2.92;;
18857;SDS011;9558;50.178;8.370;2023-11-18T16:53:42;2.92;;;1.73;;
18857;SDS011;9558;50.178;8.370;2023-11-18T16:56:29;3.35;;;2.10;;
18857;SDS011;9558;50.178;8.370;2023-11-18T17:02:05;5.53;;;2.00;;
18857;SDS011;9558;50.178;8.370;2023-11-18T17:04:52;2.90;;;1.65;;
18857;SDS011;9558;50.178;8.370;2023-11-18T17:07:39;5.05;;;2.35;;
18857;SDS011;9558;50.178;8.370;2023-11-18T17:10:26;2.38;;;1.75;;
18857;SDS011;9558;50.178;8.370;2023-11-18T17:15:59;3.20;;;2.13;;
18857;SDS011;9558;50.178;8.370;2023-11-18T17:18:47;4.72;;;2.78;;
18857;SDS011;9558;50.178;8.370;2023-11-18T17:21:34;3.55;;;2.40;;
18857;SDS011;9558;50.178;8.370;2023-11-18T17:24:23;3.20;;;1.85;;
18857;SDS011;9558;50.178;8.370;2023-11-18T17:27:10;5.05;;;1.63;;
18857;SDS011;9558;50.178;8.370;2023-11-18T17:32:44;1.48;;;1.10;;
18857;SDS011;9558;50.178;8.370;2023-11-18T17:35:33;14.35;;;2.25;;
18857;SDS011;9558;50.178;8.370;2023-11-18T17:38:20;2.55;;;1.35;;
18857;SDS011;9558;50.178;8.370;2023-11-18T17:41:06;2.30;;;1.30;;
18857;SDS011;9558;50.178;8.370;2023-11-18T17:43:53;1.00;;;0.77;;
18857;SDS011;9558;50.178;8.370;2023-11-18T17:49:27;1.90;;;1.40;;
18857;SDS011;9558;50.178;8.370;2023-11-18T17:52:17;2.35;;;1.38;;
18857;SDS011;9558;50.178;8.370;2023-11-18T17:55:04;2.72;;;1.88;;
18857;SDS011;9558;50.178;8.370;2023-11-18T17:57:52;3.28;;;1.58;;
18857;SDS011;9558;50.178;8.370;2023-11-18T18:00:39;3.20;;;2.25;;
18857;SDS011;9558;50.178;8.370;2023-11-18T18:06:12;3.90;;;2.90;;
18857;SDS011;9558;50.178;8.370;2023-11-18T18:11:47;5.65;;;3.17;;
18857;SDS011;9558;50.178;8.370;2023-11-18T18:14:34;3.78;;;2.35;;
18857;SDS011;9558;50.178;8.370;2023-11-18T18:17:20;5.88;;;2.45;;
18857;SDS011;9558;50.178;8.370;2023-11-18T18:20:07;3.58;;;2.20;;
18857;SDS011;9558;50.178;8.370;2023-11-18T18:22:54;5.05;;;3.15;;
18857;SDS011;9558;50.178;8.370;2023-11-18T18:25:42;3.13;;;2.22;;
18857;SDS011;9558;50.178;8.370;2023-11-18T18:28:29;3.40;;;2.58;;
18857;SDS011;9558;50.178;8.370;2023-11-18T18:31:16;4.18;;;2.08;;
18857;SDS011;9558;50.178;8.370;2023-11-18T18:34:03;2.97;;;2.17;;